Time;durP1;ratioP1;P1;durP2;ratioP2;P2;SDS_P1;SDS_P2;PMS_P1;PMS_P2;Temp;Humidity;BMP_temperature;BMP_pressure;BME280_temperature;BME280_humidity;BME280_pressure;Samples;Min_cycle;Max_cycle;Signal;HPM_P1;HPM_P2
2021/11/28 00:02:26;;;;;;;3.13;1.50;;;;;;;;;;5066437;28;20134;-78
2021/11/28 00:04:53;;;;;;;4.20;1.60;;;;;;;;;;5048149;28;20029;-78
2021/11/28 00:08:09;;;;;;;2.95;1.50;;;;;;;;;;5066271;28;20103;-77
2021/11/28 00:13:04;;;;;;;2.70;1.45;;;;;;;;;;5064671;28;20059;-78
2021/11/28 00:15:29;;;;;;;2.88;1.50;;;;;;;;;;5064810;28;20021;-78
2021/11/28 00:17:55;;;;;;;2.63;1.33;;;;;;;;;;5064787;28;20040;-78
2021/11/28 00:20:21;;;;;;;3.25;1.25;;;;;;;;;;5064698;28;20040;-78
2021/11/28 00:22:46;;;;;;;2.58;1.30;;;;;;;;;;5064551;28;20108;-77
2021/11/28 00:25:15;;;;;;;3.33;1.30;;;;;;;;;;5064564;28;20050;-79
2021/11/28 00:27:42;;;;;;;4.13;1.33;;;;;;;;;;5065794;28;20092;-78
2021/11/28 00:30:12;;;;;;;3.67;1.40;;;;;;;;;;5065859;28;20068;-78
2021/11/28 00:32:38;;;;;;;6.10;1.35;;;;;;;;;;5065544;28;20055;-78
2021/11/28 00:35:05;;;;;;;3.53;1.02;;;;;;;;;;5065700;28;20087;-78
2021/11/28 00:37:30;;;;;;;3.72;1.70;;;;;;;;;;5047706;28;20025;-78
2021/11/28 00:39:56;;;;;;;2.60;1.55;;;;;;;;;;5065698;28;20055;-78
2021/11/28 00:42:21;;;;;;;3.42;1.38;;;;;;;;;;5065629;28;20021;-78
2021/11/28 00:44:47;;;;;;;3.22;1.35;;;;;;;;;;5047334;28;20039;-78
2021/11/28 00:47:12;;;;;;;3.20;1.60;;;;;;;;;;5047753;28;20245;-78
2021/11/28 00:49:38;;;;;;;3.08;1.63;;;;;;;;;;5065528;28;20384;-79
2021/11/28 00:52:05;;;;;;;3.33;1.52;;;;;;;;;;5065454;28;20057;-78
2021/11/28 00:54:31;;;;;;;1.45;0.82;;;;;;;;;;5065375;28;20029;-78
2021/11/28 00:56:58;;;;;;;5.28;1.40;;;;;;;;;;5064954;28;20069;-78
2021/11/28 00:59:24;;;;;;;3.00;1.38;;;;;;;;;;5046650;28;20037;-78
2021/11/28 01:01:50;;;;;;;3.83;1.40;;;;;;;;;;5064593;28;20110;-79
2021/11/28 01:04:16;;;;;;;4.05;1.50;;;;;;;;;;5064764;28;20493;-78
2021/11/28 01:06:43;;;;;;;4.70;1.42;;;;;;;;;;5064615;28;20424;-78
2021/11/28 01:09:08;;;;;;;2.03;1.27;;;;;;;;;;5046603;28;20052;-78
2021/11/28 01:11:34;;;;;;;2.40;1.40;;;;;;;;;;5064228;28;20036;-78
2021/11/28 01:14:01;;;;;;;4.30;1.42;;;;;;;;;;5064295;28;20032;-78
2021/11/28 01:16:26;;;;;;;2.72;1.48;;;;;;;;;;5045877;28;20104;-79
2021/11/28 01:18:53;;;;;;;4.75;1.48;;;;;;;;;;5063725;28;20028;-78
2021/11/28 01:21:18;;;;;;;3.70;1.80;;;;;;;;;;5061867;28;20025;-78
2021/11/28 01:23:44;;;;;;;7.68;2.13;;;;;;;;;;5062733;28;20033;-78
2021/11/28 01:26:09;;;;;;;4.13;1.58;;;;;;;;;;5045039;28;20044;-78
2021/11/28 01:28:35;;;;;;;6.25;2.33;;;;;;;;;;5064094;28;20075;-78
2021/11/28 01:31:01;;;;;;;3.53;1.80;;;;;;;;;;5063803;28;20506;-78
2021/11/28 01:33:27;;;;;;;5.30;2.08;;;;;;;;;;5045532;28;20032;-78
2021/11/28 01:35:53;;;;;;;3.92;2.03;;;;;;;;;;5063998;28;20076;-78
2021/11/28 01:38:21;;;;;;;4.30;2.28;;;;;;;;;;5064297;28;20025;-78
2021/11/28 01:40:48;;;;;;;6.57;2.30;;;;;;;;;;5045757;28;20029;-78
2021/11/28 01:43:16;;;;;;;4.85;2.20;;;;;;;;;;5063963;28;20021;-78
2021/11/28 01:45:44;;;;;;;6.82;2.33;;;;;;;;;;5063409;28;20031;-78
2021/11/28 01:48:12;;;;;;;4.35;1.83;;;;;;;;;;5045396;28;20043;-77
2021/11/28 01:50:41;;;;;;;5.20;2.42;;;;;;;;;;5063896;28;20025;-78
2021/11/28 01:53:12;;;;;;;4.10;2.15;;;;;;;;;;5063886;28;20055;-78
2021/11/28 01:55:38;;;;;;;5.20;2.40;;;;;;;;;;5063688;28;20076;-78
2021/11/28 01:58:06;;;;;;;4.47;2.08;;;;;;;;;;5063397;28;20103;-78
2021/11/28 02:00:40;;;;;;;6.90;2.28;;;;;;;;;;5063174;28;20028;-77
2021/11/28 02:03:06;;;;;;;4.75;2.15;;;;;;;;;;5045323;28;20033;-77
2021/11/28 02:05:32;;;;;;;6.38;2.70;;;;;;;;;;5063719;28;20055;-78
2021/11/28 02:07:58;;;;;;;6.18;2.38;;;;;;;;;;5045643;28;20445;-76
2021/11/28 02:10:25;;;;;;;3.55;2.15;;;;;;;;;;5045873;28;20101;-77
2021/11/28 02:12:51;;;;;;;2.88;1.65;;;;;;;;;;5045959;28;20032;-77
2021/11/28 02:15:17;;;;;;;5.60;1.90;;;;;;;;;;5063173;28;20037;-77
2021/11/28 02:17:47;;;;;;;2.80;1.48;;;;;;;;;;5063946;28;20033;-77
2021/11/28 02:20:14;;;;;;;6.97;2.13;;;;;;;;;;5063210;28;20047;-77
2021/11/28 02:22:40;;;;;;;3.88;1.77;;;;;;;;;;5063235;28;20089;-78
2021/11/28 02:25:08;;;;;;;3.45;1.65;;;;;;;;;;5063478;28;20075;-77
2021/11/28 02:27:33;;;;;;;4.78;2.10;;;;;;;;;;5039502;28;20072;-77
2021/11/28 02:29:59;;;;;;;5.00;1.80;;;;;;;;;;5043673;28;20494;-77
2021/11/28 02:32:24;;;;;;;4.15;1.83;;;;;;;;;;5043547;28;20083;-77
2021/11/28 02:34:49;;;;;;;3.97;2.13;;;;;;;;;;5043482;28;20026;-77
2021/11/28 02:37:15;;;;;;;7.65;2.15;;;;;;;;;;5043545;28;20033;-77
2021/11/28 02:39:40;;;;;;;4.05;1.92;;;;;;;;;;5043562;28;20025;-77
2021/11/28 02:42:06;;;;;;;2.42;1.38;;;;;;;;;;5043702;28;20033;-78
2021/11/28 02:44:32;;;;;;;4.10;1.77;;;;;;;;;;5025672;28;20531;-77
2021/11/28 02:46:58;;;;;;;6.57;1.90;;;;;;;;;;5025560;28;20052;-77
2021/11/28 02:49:24;;;;;;;3.78;1.90;;;;;;;;;;5043552;28;20482;-77
2021/11/28 02:51:50;;;;;;;3.85;1.58;;;;;;;;;;5025564;28;20381;-76
2021/11/28 02:54:15;;;;;;;4.15;1.77;;;;;;;;;;5025745;28;20053;-77
2021/11/28 02:56:43;;;;;;;5.43;1.95;;;;;;;;;;5043369;28;20035;-77
2021/11/28 02:59:09;;;;;;;4.70;1.88;;;;;;;;;;5043554;28;20026;-75
2021/11/28 03:01:34;;;;;;;2.88;1.60;;;;;;;;;;5043425;28;20033;-78
2021/11/28 03:04:00;;;;;;;3.47;1.67;;;;;;;;;;5025390;28;20060;-77
2021/11/28 03:06:25;;;;;;;4.38;2.05;;;;;;;;;;5042020;28;20056;-77
2021/11/28 03:08:51;;;;;;;2.80;1.50;;;;;;;;;;5042506;28;20052;-77
2021/11/28 03:11:16;;;;;;;2.78;1.70;;;;;;;;;;5042070;28;20026;-77
2021/11/28 03:13:45;;;;;;;3.38;1.77;;;;;;;;;;5028631;28;20035;-77
2021/11/28 03:16:15;;;;;;;3.78;1.52;;;;;;;;;;5046242;28;20091;-78
2021/11/28 03:18:41;;;;;;;3.97;1.50;;;;;;;;;;5046444;28;20030;-78
2021/11/28 03:21:14;;;;;;;2.97;1.45;;;;;;;;;;5029205;28;20175;-77
2021/11/28 03:23:43;;;;;;;3.80;1.77;;;;;;;;;;5046994;28;20026;-77
2021/11/28 03:26:12;;;;;;;2.08;1.20;;;;;;;;;;5028509;28;20033;-77
2021/11/28 03:28:41;;;;;;;3.53;1.55;;;;;;;;;;5061316;28;20128;-76
2021/11/28 03:31:07;;;;;;;4.20;1.73;;;;;;;;;;5048569;28;20025;-77
2021/11/28 03:33:32;;;;;;;2.65;1.25;;;;;;;;;;5048873;28;20075;-76
2021/11/28 03:35:58;;;;;;;2.13;1.48;;;;;;;;;;5048871;28;20461;-76
2021/11/28 03:38:24;;;;;;;3.70;1.48;;;;;;;;;;5066887;28;20025;-76
2021/11/28 03:40:50;;;;;;;2.55;1.27;;;;;;;;;;5066758;28;20111;-76
2021/11/28 03:43:15;;;;;;;2.85;1.40;;;;;;;;;;5048370;28;20094;-77
2021/11/28 03:45:41;;;;;;;2.58;1.67;;;;;;;;;;5065777;28;20091;-77
2021/11/28 03:48:07;;;;;;;2.17;1.30;;;;;;;;;;5065922;28;20055;-76
2021/11/28 03:50:33;;;;;;;3.28;1.20;;;;;;;;;;5065927;28;20057;-77
2021/11/28 03:52:58;;;;;;;1.88;1.20;;;;;;;;;;5066007;28;20037;-76
2021/11/28 03:55:24;;;;;;;1.90;1.20;;;;;;;;;;5047798;28;20021;-77
2021/11/28 03:57:50;;;;;;;2.83;1.38;;;;;;;;;;5066501;28;20029;-77
2021/11/28 04:00:16;;;;;;;2.30;1.23;;;;;;;;;;5066248;28;20029;-77
2021/11/28 04:02:42;;;;;;;2.33;1.20;;;;;;;;;;5066497;28;20032;-76
2021/11/28 04:05:09;;;;;;;2.70;1.05;;;;;;;;;;5047905;28;20125;-77
2021/11/28 04:07:35;;;;;;;1.10;0.80;;;;;;;;;;5066146;28;20046;-77
2021/11/28 04:10:01;;;;;;;2.33;1.20;;;;;;;;;;5047720;28;20040;-77
2021/11/28 04:12:27;;;;;;;2.10;1.10;;;;;;;;;;5065954;28;20025;-77
2021/11/28 04:14:57;;;;;;;2.33;1.02;;;;;;;;;;5047478;28;20096;-76
2021/11/28 04:17:23;;;;;;;1.48;1.05;;;;;;;;;;5065656;28;20074;-77
2021/11/28 04:19:49;;;;;;;1.88;1.05;;;;;;;;;;5065173;28;20029;-77
2021/11/28 04:22:14;;;;;;;1.80;1.00;;;;;;;;;;5046904;28;20119;-77
2021/11/28 04:24:40;;;;;;;1.58;0.82;;;;;;;;;;5065326;28;20039;-76
2021/11/28 04:27:05;;;;;;;1.60;0.90;;;;;;;;;;5064771;28;20029;-78
2021/11/28 04:29:31;;;;;;;1.00;0.80;;;;;;;;;;5047561;28;20025;-76
2021/11/28 04:31:56;;;;;;;1.98;1.08;;;;;;;;;;5065044;28;20085;-78
2021/11/28 04:34:22;;;;;;;1.67;0.63;;;;;;;;;;5065253;28;20025;-77
2021/11/28 04:36:47;;;;;;;1.00;0.90;;;;;;;;;;5064823;28;20021;-77
2021/11/28 04:39:13;;;;;;;1.25;0.70;;;;;;;;;;5065357;28;20089;-76
2021/11/28 04:41:38;;;;;;;2.50;0.90;;;;;;;;;;5065199;28;20029;-79
2021/11/28 04:44:04;;;;;;;1.08;0.60;;;;;;;;;;5047214;28;20025;-77
2021/11/28 04:46:30;;;;;;;1.35;0.73;;;;;;;;;;5064727;28;20112;-77
2021/11/28 04:48:55;;;;;;;0.93;0.65;;;;;;;;;;5064946;28;20036;-78
2021/11/28 04:51:21;;;;;;;0.93;0.63;;;;;;;;;;5064844;28;20032;-77
2021/11/28 04:53:46;;;;;;;2.67;1.10;;;;;;;;;;5047005;28;20062;-77
2021/11/28 04:56:12;;;;;;;0.70;0.50;;;;;;;;;;5046848;28;20037;-77
2021/11/28 04:58:37;;;;;;;1.13;0.60;;;;;;;;;;5064906;28;20044;-79
2021/11/28 05:01:03;;;;;;;1.27;0.70;;;;;;;;;;5064542;28;20159;-77
2021/11/28 05:03:28;;;;;;;0.60;0.40;;;;;;;;;;5064611;28;20635;-77
2021/11/28 05:05:54;;;;;;;0.95;0.40;;;;;;;;;;5064508;28;20025;-78
2021/11/28 05:08:19;;;;;;;0.70;0.50;;;;;;;;;;5046778;28;20033;-77
2021/11/28 05:10:45;;;;;;;0.60;0.60;;;;;;;;;;5046816;28;20020;-76
2021/11/28 05:13:10;;;;;;;0.98;0.50;;;;;;;;;;5046916;28;20033;-75
2021/11/28 05:15:36;;;;;;;1.15;0.70;;;;;;;;;;5046576;28;20017;-76
2021/11/28 05:18:01;;;;;;;0.95;0.60;;;;;;;;;;5046614;28;20048;-76
2021/11/28 05:20:27;;;;;;;1.48;0.77;;;;;;;;;;5064624;28;20025;-76
2021/11/28 05:22:52;;;;;;;1.15;0.70;;;;;;;;;;5065086;28;20489;-78
2021/11/28 05:25:18;;;;;;;1.23;0.70;;;;;;;;;;5065036;28;20507;-76
2021/11/28 05:27:46;;;;;;;0.90;0.60;;;;;;;;;;5064574;28;20049;-76
2021/11/28 05:30:12;;;;;;;1.63;0.70;;;;;;;;;;5046678;28;20052;-76
2021/11/28 05:32:37;;;;;;;0.80;0.57;;;;;;;;;;5047056;28;20025;-75
2021/11/28 05:35:03;;;;;;;0.80;0.52;;;;;;;;;;5046154;28;20060;-75
2021/11/28 05:37:29;;;;;;;0.63;0.50;;;;;;;;;;5064684;28;20067;-76
2021/11/28 05:39:54;;;;;;;2.28;0.73;;;;;;;;;;5064377;28;20462;-73
2021/11/28 05:42:19;;;;;;;1.20;0.60;;;;;;;;;;5064170;28;20021;-76
2021/11/28 05:44:46;;;;;;;1.30;0.70;;;;;;;;;;5063351;28;20044;-76
2021/11/28 05:47:11;;;;;;;2.25;1.00;;;;;;;;;;5063490;28;20056;-76
2021/11/28 05:49:37;;;;;;;2.85;0.85;;;;;;;;;;5063816;28;20091;-75
2021/11/28 05:52:03;;;;;;;1.67;0.80;;;;;;;;;;5063044;28;20033;-77
2021/11/28 05:54:29;;;;;;;2.05;0.93;;;;;;;;;;5045277;28;20033;-73
2021/11/28 05:56:54;;;;;;;3.35;1.00;;;;;;;;;;5063472;28;20170;-76
2021/11/28 05:59:20;;;;;;;1.52;0.98;;;;;;;;;;5044838;28;20056;-73
2021/11/28 06:01:46;;;;;;;1.90;1.10;;;;;;;;;;5063198;28;20036;-77
2021/11/28 06:04:11;;;;;;;2.58;1.02;;;;;;;;;;5043365;28;20032;-76
2021/11/28 06:06:37;;;;;;;1.30;0.80;;;;;;;;;;5061470;28;20028;-77
2021/11/28 06:09:02;;;;;;;1.27;0.80;;;;;;;;;;5045689;28;20025;-79
2021/11/28 06:11:28;;;;;;;1.50;0.70;;;;;;;;;;5045125;28;20040;-79
2021/11/28 06:13:53;;;;;;;1.52;0.77;;;;;;;;;;5062663;28;20052;-79
2021/11/28 06:16:19;;;;;;;0.93;0.63;;;;;;;;;;5044137;28;20362;-78
2021/11/28 06:18:44;;;;;;;0.98;0.60;;;;;;;;;;5045213;28;20029;-79
2021/11/28 06:21:10;;;;;;;3.53;0.90;;;;;;;;;;5044753;28;20096;-78
2021/11/28 06:23:35;;;;;;;1.52;0.90;;;;;;;;;;5063192;28;20040;-78
2021/11/28 06:26:02;;;;;;;1.92;0.80;;;;;;;;;;5044738;28;20242;-77
2021/11/28 06:28:28;;;;;;;0.90;0.70;;;;;;;;;;5031927;28;20042;-77
2021/11/28 06:30:54;;;;;;;1.35;0.88;;;;;;;;;;5025324;28;20060;-78
2021/11/28 06:33:20;;;;;;;1.50;0.95;;;;;;;;;;5025576;28;20037;-79
2021/11/28 06:35:45;;;;;;;1.58;0.90;;;;;;;;;;5043229;28;20117;-78
2021/11/28 06:38:11;;;;;;;2.05;0.90;;;;;;;;;;5025186;28;20037;-80
2021/11/28 06:40:36;;;;;;;1.15;0.75;;;;;;;;;;5042953;28;20021;-79
2021/11/28 06:43:03;;;;;;;1.75;0.68;;;;;;;;;;5043181;28;20059;-82
2021/11/28 06:45:28;;;;;;;0.90;0.68;;;;;;;;;;5025508;28;20026;-80
2021/11/28 06:47:53;;;;;;;1.02;0.50;;;;;;;;;;5025950;28;20097;-81
2021/11/28 06:50:19;;;;;;;1.58;0.80;;;;;;;;;;5043396;28;20048;-79
2021/11/28 06:52:45;;;;;;;0.80;0.68;;;;;;;;;;5025214;28;20029;-78
2021/11/28 06:55:11;;;;;;;3.33;0.60;;;;;;;;;;5042843;28;20033;-80
2021/11/28 06:57:37;;;;;;;1.30;0.68;;;;;;;;;;5025076;28;20021;-80
2021/11/28 07:00:05;;;;;;;1.58;0.60;;;;;;;;;;5025052;28;20042;-79
2021/11/28 07:02:31;;;;;;;1.45;0.70;;;;;;;;;;5025220;28;20355;-79
2021/11/28 07:04:58;;;;;;;1.38;0.70;;;;;;;;;;5025223;28;20045;-77
2021/11/28 07:07:24;;;;;;;1.65;0.77;;;;;;;;;;5043100;28;20109;-79
2021/11/28 07:09:50;;;;;;;1.73;0.98;;;;;;;;;;5042911;28;20496;-78
2021/11/28 07:12:19;;;;;;;1.20;0.80;;;;;;;;;;5043108;28;20033;-77
2021/11/28 07:14:44;;;;;;;1.23;0.80;;;;;;;;;;5025230;28;20029;-78
2021/11/28 07:17:10;;;;;;;1.73;0.73;;;;;;;;;;5024823;28;20113;-78
2021/11/28 07:19:35;;;;;;;1.23;0.80;;;;;;;;;;5043010;28;20120;-80
2021/11/28 07:22:02;;;;;;;1.38;0.93;;;;;;;;;;5042745;28;20030;-79
2021/11/28 07:24:27;;;;;;;1.00;0.70;;;;;;;;;;5043282;28;20055;-79
2021/11/28 07:26:53;;;;;;;1.85;0.80;;;;;;;;;;5043521;28;20085;-76
2021/11/28 07:29:19;;;;;;;1.25;0.88;;;;;;;;;;5046069;28;20068;-79
2021/11/28 07:31:44;;;;;;;2.05;1.20;;;;;;;;;;5045717;28;20127;-78
2021/11/28 07:34:10;;;;;;;2.05;0.85;;;;;;;;;;5063947;28;20063;-81
2021/11/28 07:36:37;;;;;;;2.38;1.05;;;;;;;;;;5045144;28;20044;-79
2021/11/28 07:39:07;;;;;;;1.63;0.88;;;;;;;;;;5045403;28;20029;-79
2021/11/28 07:41:33;;;;;;;4.78;1.38;;;;;;;;;;5044728;28;20112;-80
2021/11/28 07:43:58;;;;;;;2.30;1.10;;;;;;;;;;5062842;28;20036;-80
2021/11/28 07:46:24;;;;;;;2.22;1.23;;;;;;;;;;5063142;28;20017;-80
2021/11/28 07:48:49;;;;;;;2.70;1.50;;;;;;;;;;5045294;28;20039;-81
2021/11/28 07:51:15;;;;;;;2.95;1.58;;;;;;;;;;5062661;28;20035;-81
2021/11/28 07:53:44;;;;;;;2.00;1.10;;;;;;;;;;5045055;28;20033;-80
2021/11/28 07:56:09;;;;;;;1.92;1.25;;;;;;;;;;5062761;28;20045;-79
2021/11/28 07:58:35;;;;;;;3.00;1.15;;;;;;;;;;5047183;28;20040;-78
2021/11/28 08:01:01;;;;;;;2.55;1.40;;;;;;;;;;5048433;28;20032;-77
2021/11/28 08:03:26;;;;;;;1.85;1.10;;;;;;;;;;5047925;28;20025;-79
2021/11/28 08:05:57;;;;;;;5.80;1.30;;;;;;;;;;5065863;28;20025;-82
2021/11/28 08:08:22;;;;;;;2.38;1.40;;;;;;;;;;5066118;28;20362;-79
2021/11/28 08:10:47;;;;;;;2.50;1.27;;;;;;;;;;5048283;28;20074;-79
2021/11/28 08:13:13;;;;;;;1.80;1.00;;;;;;;;;;5048328;28;20115;-79
2021/11/28 08:15:38;;;;;;;2.45;1.38;;;;;;;;;;5065799;28;20063;-80
2021/11/28 08:18:04;;;;;;;2.05;0.98;;;;;;;;;;5048334;28;20082;-79
2021/11/28 08:20:30;;;;;;;1.65;0.90;;;;;;;;;;5065576;28;20025;-79
2021/11/28 08:22:55;;;;;;;2.50;1.40;;;;;;;;;;5066152;28;20029;-84
2021/11/28 08:25:21;;;;;;;3.72;1.20;;;;;;;;;;5065792;28;20025;-80
2021/11/28 08:27:47;;;;;;;1.92;1.15;;;;;;;;;;5066057;28;20045;-80
2021/11/28 08:30:16;;;;;;;1.88;1.10;;;;;;;;;;5066600;28;20104;-79
2021/11/28 08:32:43;;;;;;;2.78;1.50;;;;;;;;;;5048458;28;20025;-77
2021/11/28 08:35:10;;;;;;;1.77;1.02;;;;;;;;;;5047657;28;20454;-78
2021/11/28 08:37:35;;;;;;;3.08;1.45;;;;;;;;;;5047418;28;20096;-78
2021/11/28 08:40:04;;;;;;;1.92;1.13;;;;;;;;;;5047749;28;20063;-83
2021/11/28 08:42:32;;;;;;;2.30;1.30;;;;;;;;;;5066063;28;20036;-77
2021/11/28 08:45:02;;;;;;;1.65;1.05;;;;;;;;;;5065724;28;20025;-79
2021/11/28 08:47:27;;;;;;;1.92;1.10;;;;;;;;;;5065610;28;20024;-79
2021/11/28 08:49:53;;;;;;;1.98;1.15;;;;;;;;;;5065289;28;20037;-79
2021/11/28 08:52:18;;;;;;;2.75;1.13;;;;;;;;;;5065169;28;20075;-78
2021/11/28 08:54:44;;;;;;;1.83;1.05;;;;;;;;;;5047390;28;20422;-80
2021/11/28 08:57:09;;;;;;;2.28;0.90;;;;;;;;;;5064647;28;20047;-80
2021/11/28 08:59:36;;;;;;;0.90;0.65;;;;;;;;;;5064962;28;20057;-79
2021/11/28 09:02:02;;;;;;;1.48;0.70;;;;;;;;;;5064520;28;20029;-81
2021/11/28 09:04:27;;;;;;;1.45;0.90;;;;;;;;;;5064681;28;20036;-79
2021/11/28 09:06:53;;;;;;;1.23;0.80;;;;;;;;;;5064518;28;20043;-78
2021/11/28 09:09:18;;;;;;;2.08;1.08;;;;;;;;;;5063895;28;20025;-77
2021/11/28 09:11:44;;;;;;;1.33;0.90;;;;;;;;;;5064795;28;20032;-75
2021/11/28 09:14:10;;;;;;;0.98;0.63;;;;;;;;;;5046842;28;20036;-80
2021/11/28 09:16:35;;;;;;;1.48;0.90;;;;;;;;;;5046473;28;20040;-78
2021/11/28 09:19:06;;;;;;;3.25;1.08;;;;;;;;;;5065015;28;20021;-75
2021/11/28 09:21:32;;;;;;;1.60;0.90;;;;;;;;;;5064827;28;20058;-76
2021/11/28 09:26:42;;;;;;;;;;;;;;;;;;5065410;28;20116;-78
2021/11/28 09:29:08;;;;;;;1.95;1.00;;;;;;;;;;5063339;28;19917;-77
2021/11/28 09:31:34;;;;;;;2.00;0.90;;;;;;;;;;5064687;28;20040;-78
2021/11/28 09:34:01;;;;;;;1.23;0.73;;;;;;;;;;5046573;28;20033;-78
2021/11/28 09:36:28;;;;;;;2.15;0.88;;;;;;;;;;5046614;28;20101;-77
2021/11/28 09:38:55;;;;;;;1.23;0.70;;;;;;;;;;5046758;28;20055;-77
2021/11/28 09:41:23;;;;;;;2.05;0.90;;;;;;;;;;5064862;28;20040;-77
2021/11/28 09:43:54;;;;;;;1.48;0.80;;;;;;;;;;5064661;28;20021;-77
2021/11/28 09:46:22;;;;;;;1.77;0.95;;;;;;;;;;5064293;28;20025;-76
2021/11/28 09:48:51;;;;;;;2.42;1.17;;;;;;;;;;5064380;28;20030;-78
2021/11/28 09:51:17;;;;;;;2.58;0.80;;;;;;;;;;5064387;28;20025;-76
2021/11/28 09:53:44;;;;;;;1.95;1.20;;;;;;;;;;5064749;28;20031;-77
2021/11/28 09:56:10;;;;;;;1.73;0.95;;;;;;;;;;5045787;28;20345;-77
2021/11/28 09:58:36;;;;;;;1.90;0.90;;;;;;;;;;5064044;28;20033;-76
2021/11/28 10:01:01;;;;;;;1.92;1.00;;;;;;;;;;5063717;28;20089;-76
2021/11/28 10:03:27;;;;;;;1.85;1.00;;;;;;;;;;5063893;28;20024;-76
2021/11/28 10:05:54;;;;;;;2.45;1.00;;;;;;;;;;5045485;28;20055;-78
2021/11/28 10:08:21;;;;;;;1.85;0.95;;;;;;;;;;5063863;28;20085;-77
2021/11/28 10:11:09;;;;;;;1.35;0.70;;;;;;;;;;5063322;28;20028;-76
2021/11/28 10:13:35;;;;;;;0.95;0.60;;;;;;;;;;5025233;28;20047;-77
2021/11/28 10:16:00;;;;;;;1.50;0.70;;;;;;;;;;5045092;28;20052;-76
2021/11/28 10:18:26;;;;;;;2.85;0.80;;;;;;;;;;5063416;28;20033;-75
2021/11/28 10:20:53;;;;;;;2.25;1.10;;;;;;;;;;5062903;28;20021;-78
2021/11/28 10:23:19;;;;;;;1.65;0.77;;;;;;;;;;5063598;28;20029;-76
2021/11/28 10:25:44;;;;;;;1.38;0.70;;;;;;;;;;5045113;28;20056;-75
2021/11/28 10:28:10;;;;;;;1.35;0.80;;;;;;;;;;5063154;28;20041;-74
2021/11/28 10:30:42;;;;;;;0.45;0.40;;;;;;;;;;5063250;28;20029;-76
2021/11/28 10:33:13;;;;;;;1.02;0.68;;;;;;;;;;5045326;28;20052;-75
2021/11/28 10:35:59;;;;;;;1.55;0.70;;;;;;;;;;5063096;28;20037;-76
2021/11/28 10:38:32;;;;;;;2.20;0.80;;;;;;;;;;5045258;28;20025;-75
2021/11/28 10:40:58;;;;;;;1.13;0.60;;;;;;;;;;5062763;28;20032;-76
2021/11/28 10:43:24;;;;;;;0.77;0.50;;;;;;;;;;5045030;28;20035;-75
2021/11/28 10:45:51;;;;;;;1.42;0.90;;;;;;;;;;5063035;28;20104;-78
2021/11/28 10:48:24;;;;;;;0.95;0.73;;;;;;;;;;5063029;28;20031;-76
2021/11/28 10:50:50;;;;;;;1.10;0.73;;;;;;;;;;5063120;28;20036;-76
2021/11/28 10:53:21;;;;;;;2.65;0.63;;;;;;;;;;5062887;28;20101;-76
2021/11/28 10:55:49;;;;;;;0.85;0.55;;;;;;;;;;5062778;28;20025;-77
2021/11/28 10:58:30;;;;;;;2.25;0.80;;;;;;;;;;5063075;28;20021;-78
2021/11/28 11:01:07;;;;;;;1.77;0.82;;;;;;;;;;5044472;28;20062;-76
2021/11/28 11:03:38;;;;;;;1.63;1.10;;;;;;;;;;5063032;28;20055;-78
2021/11/28 11:06:19;;;;;;;1.75;0.90;;;;;;;;;;5062912;28;20044;-76
2021/11/28 11:08:47;;;;;;;1.60;0.98;;;;;;;;;;5063213;28;20533;-80
2021/11/28 11:11:15;;;;;;;1.50;0.80;;;;;;;;;;5063237;28;20261;-78
2021/11/28 11:14:04;;;;;;;1.30;1.00;;;;;;;;;;5045515;28;20052;-79
2021/11/28 11:16:35;;;;;;;1.15;0.57;;;;;;;;;;5063263;28;20036;-81
2021/11/28 11:19:35;;;;;;;2.03;0.80;;;;;;;;;;5063487;28;20365;-81
2021/11/28 11:22:06;;;;;;;1.45;0.90;;;;;;;;;;5063176;28;20017;-76
2021/11/28 11:24:36;;;;;;;2.00;1.00;;;;;;;;;;5063495;28;20057;-75
2021/11/28 11:27:15;;;;;;;1.83;1.10;;;;;;;;;;5044958;28;20055;-80
2021/11/28 11:29:48;;;;;;;1.60;0.75;;;;;;;;;;5044717;28;20037;-76
2021/11/28 11:32:17;;;;;;;2.33;1.27;;;;;;;;;;5044672;28;20032;-78
2021/11/28 11:34:53;;;;;;;1.73;0.98;;;;;;;;;;5048541;28;20025;-80
2021/11/28 11:37:20;;;;;;;1.75;0.90;;;;;;;;;;5048646;28;20032;-78
2021/11/28 11:39:47;;;;;;;2.15;1.02;;;;;;;;;;5066225;28;20029;-76
2021/11/28 11:42:18;;;;;;;1.70;1.10;;;;;;;;;;5048327;28;20033;-76
2021/11/28 11:44:45;;;;;;;2.22;1.00;;;;;;;;;;5048391;28;20040;-76
2021/11/28 11:47:11;;;;;;;2.13;1.10;;;;;;;;;;5047966;28;20025;-79
2021/11/28 11:49:39;;;;;;;2.45;1.02;;;;;;;;;;5048134;28;20079;-78
2021/11/28 11:52:06;;;;;;;1.35;0.75;;;;;;;;;;5047978;28;20033;-78
2021/11/28 11:54:34;;;;;;;2.22;1.00;;;;;;;;;;5048412;28;20025;-77
2021/11/28 11:57:09;;;;;;;2.00;0.80;;;;;;;;;;5066288;28;20089;-83
2021/11/28 12:00:08;;;;;;;1.13;0.90;;;;;;;;;;5048228;28;20029;-80
2021/11/28 12:02:33;;;;;;;1.30;0.73;;;;;;;;;;5066493;28;20028;-79
2021/11/28 12:04:59;;;;;;;1.17;0.85;;;;;;;;;;5066055;28;20082;-78
2021/11/28 12:07:51;;;;;;;1.50;0.70;;;;;;;;;;5065733;28;20036;-74
2021/11/28 12:10:41;;;;;;;2.60;0.77;;;;;;;;;;5065219;28;20035;-77
2021/11/28 12:13:33;;;;;;;2.67;0.80;;;;;;;;;;5066143;28;20028;-78
2021/11/28 12:16:07;;;;;;;1.20;0.55;;;;;;;;;;5037129;28;20051;-75
2021/11/28 12:18:54;;;;;;;1.92;0.88;;;;;;;;;;5048366;28;20040;-76
2021/11/28 12:21:21;;;;;;;1.00;0.63;;;;;;;;;;5048102;28;20047;-76
2021/11/28 12:24:05;;;;;;;1.25;0.80;;;;;;;;;;5066273;28;20040;-76
2021/11/28 12:26:30;;;;;;;2.08;0.88;;;;;;;;;;5066207;28;20028;-76
2021/11/28 12:29:11;;;;;;;1.33;0.57;;;;;;;;;;5065568;28;20041;-77
2021/11/28 12:31:48;;;;;;;1.85;0.65;;;;;;;;;;5065854;28;20059;-79
2021/11/28 12:34:18;;;;;;;0.75;0.68;;;;;;;;;;5066118;28;20033;-78
2021/11/28 12:36:52;;;;;;;1.13;0.60;;;;;;;;;;5047933;28;20039;-78
2021/11/28 12:39:22;;;;;;;0.80;0.70;;;;;;;;;;5047765;28;20057;-78
2021/11/28 12:44:22;;;;;;;1.42;0.70;;;;;;;;;;5065454;28;20045;-77
2021/11/28 12:46:50;;;;;;;0.55;0.55;;;;;;;;;;5065436;28;20382;-78
2021/11/28 12:49:32;;;;;;;1.00;0.70;;;;;;;;;;5066000;28;20029;-76
2021/11/28 12:52:22;;;;;;;0.50;0.30;;;;;;;;;;5065416;28;20124;-78
2021/11/28 12:55:09;;;;;;;0.55;0.47;;;;;;;;;;5065378;28;20032;-77
2021/11/28 12:58:05;;;;;;;1.73;0.65;;;;;;;;;;5065342;28;20076;-77
2021/11/28 13:00:39;;;;;;;0.40;0.40;;;;;;;;;;5030700;28;20037;-77
2021/11/28 13:03:10;;;;;;;0.40;0.40;;;;;;;;;;5047315;28;20048;-77
2021/11/28 13:05:41;;;;;;;0.30;0.30;;;;;;;;;;5065582;28;20069;-78
2021/11/28 13:08:07;;;;;;;1.08;0.57;;;;;;;;;;5065026;28;20032;-78
2021/11/28 13:10:42;;;;;;;1.08;0.50;;;;;;;;;;5064798;28;20037;-78
2021/11/28 13:13:16;;;;;;;1.00;0.55;;;;;;;;;;5046911;28;20025;-78
2021/11/28 13:16:01;;;;;;;0.95;0.50;;;;;;;;;;5064821;28;20029;-78
2021/11/28 13:18:33;;;;;;;0.40;0.40;;;;;;;;;;5046611;28;20041;-78
2021/11/28 13:21:24;;;;;;;0.85;0.52;;;;;;;;;;5046500;28;20029;-79
2021/11/28 13:23:54;;;;;;;1.95;0.85;;;;;;;;;;5046752;28;20086;-78
2021/11/28 13:26:26;;;;;;;1.05;0.52;;;;;;;;;;5046874;28;20029;-78
2021/11/28 13:28:56;;;;;;;0.55;0.35;;;;;;;;;;5064517;28;20051;-78
2021/11/28 13:31:23;;;;;;;0.88;0.55;;;;;;;;;;5064474;28;20025;-78
2021/11/28 13:34:01;;;;;;;1.42;0.80;;;;;;;;;;5064877;28;20222;-79
2021/11/28 13:36:46;;;;;;;2.10;0.50;;;;;;;;;;5064672;28;20044;-78
2021/11/28 13:39:15;;;;;;;1.65;0.75;;;;;;;;;;5064734;28;20033;-79
2021/11/28 13:41:41;;;;;;;1.70;0.57;;;;;;;;;;5046181;28;20025;-77
2021/11/28 13:44:15;;;;;;;0.75;0.50;;;;;;;;;;5046147;28;20025;-80
2021/11/28 13:46:45;;;;;;;;;;;;;;;;;;5064618;28;20039;-79
2021/11/28 13:49:22;;;;;;;0.98;0.60;;;;;;;;;;5063892;28;20370;-78
2021/11/28 13:51:52;;;;;;;0.93;0.50;;;;;;;;;;5062525;28;20029;-79
2021/11/28 13:54:20;;;;;;;0.68;0.50;;;;;;;;;;5063565;28;20033;-79
2021/11/28 13:56:47;;;;;;;0.68;0.50;;;;;;;;;;5044944;28;20025;-78
2021/11/28 13:59:16;;;;;;;0.73;0.52;;;;;;;;;;5063281;28;20374;-78
2021/11/28 14:01:42;;;;;;;0.68;0.50;;;;;;;;;;5062858;28;20052;-78
2021/11/28 14:04:25;;;;;;;0.75;0.50;;;;;;;;;;5063710;28;20036;-78
2021/11/28 14:06:51;;;;;;;0.93;0.60;;;;;;;;;;5063458;28;20025;-77
2021/11/28 14:09:16;;;;;;;1.58;0.60;;;;;;;;;;5063958;28;20104;-78
2021/11/28 14:11:44;;;;;;;0.60;0.50;;;;;;;;;;5063620;28;20045;-78
2021/11/28 14:14:11;;;;;;;1.13;0.73;;;;;;;;;;5063966;28;20025;-77
2021/11/28 14:16:37;;;;;;;0.45;0.40;;;;;;;;;;5063858;28;20127;-78
2021/11/28 14:19:03;;;;;;;0.30;0.30;;;;;;;;;;5062266;28;20142;-78
2021/11/28 14:21:37;;;;;;;3.05;0.95;;;;;;;;;;5062141;28;20096;-79
2021/11/28 14:24:03;;;;;;;0.63;0.57;;;;;;;;;;5063247;28;20032;-78
2021/11/28 14:26:33;;;;;;;0.73;0.50;;;;;;;;;;5063305;28;20021;-78
2021/11/28 14:29:00;;;;;;;1.08;0.68;;;;;;;;;;5045107;28;20142;-77
2021/11/28 14:31:26;;;;;;;1.10;0.60;;;;;;;;;;5063172;28;20047;-78
2021/11/28 14:33:52;;;;;;;0.93;0.55;;;;;;;;;;5045703;28;20056;-78
2021/11/28 14:36:28;;;;;;;1.67;0.90;;;;;;;;;;5063441;28;20065;-78
2021/11/28 14:39:06;;;;;;;2.20;0.70;;;;;;;;;;5063514;28;20083;-78
2021/11/28 14:41:44;;;;;;;1.35;0.80;;;;;;;;;;5045314;28;20044;-77
2021/11/28 14:44:17;;;;;;;3.33;0.85;;;;;;;;;;5045804;28;20059;-78
2021/11/28 14:46:43;;;;;;;1.38;0.93;;;;;;;;;;5063249;28;20029;-78
2021/11/28 14:49:13;;;;;;;2.30;0.95;;;;;;;;;;5045579;28;20036;-78
2021/11/28 14:51:38;;;;;;;2.40;1.05;;;;;;;;;;5063076;28;20025;-77
2021/11/28 14:54:12;;;;;;;1.67;0.93;;;;;;;;;;5063261;28;20021;-77
2021/11/28 14:56:39;;;;;;;1.15;0.77;;;;;;;;;;5063364;28;20029;-77
2021/11/28 14:59:15;;;;;;;1.60;0.80;;;;;;;;;;5063410;28;20045;-77